Welcome to our new website - Welkom op onze vernieuwde website - Bienvenue sur notre nouveau site web - Willkommen auf unserer neuen Website
Check our progress frequently. Prüfen Sie unsere Fortschritte regelmäßig. Consultez notre progression fréquemment. Komt u straks nog eens

KNMI Weersverwachting is alleen beschikbaar in de Nederlandse Taal, Ongeacht welke taal u kiest.
KNMI weather forecast is only available in the Dutch language, No matter what language you choose.







Meteo Oudkarspel - De weer weet site voor Langedijk

Blijf op de hoogte van het actuele weer, Keep up to date with the current weather.



Lokaal brandgevaar
CBI


Regionaal natuur brand risico: Meer informatie


Mijn Webcam 1 Meer informatie My webcam


Mijn Webcam 2 Meer informatie My webcam 2


Onweer radar Meer informatie blitzortung!


Regen radar Meer informatie rain snow radar


Bezoek onze andere website:

Template - Davis WeatherLink Version
Vantage Veu

Template - Meteotemplate

Template - HomeWeatherStation

PDøROK Multimedia

Meteo Broek Op Langedijk

Visual FM - Serious Internet RadioVisual FM - Serious Internet Radio

Lief LangedijkLief Langedijk

Dé fietsenmaker van Langedijk en omstrekenAxel Noort dé fietsenmaker

Ijsvereniging Volharding

Meteo Tuitjenhorn

Meteo Delfzijl

Weerstation Noordbergum

Weerstation ParkstadWeerstation Parkstad



Het weer levert geen direct gevaar op.    Er zijn geen waarschuwingen afgegeven.

METAR rapporten vliegvelden

   
EHKD - De Kooy (navy), Netherlands
Afstand tot: N 23 km
Gewijzigd: 10-Jul-2020 04:55
Bewolking  
Bewolking  
   Wind: NO 27.8 km/h
Wind: NO 27.8 km/h
Temperatuur: 14°C
Dauwpunt: 13°C
Vochtigheid: 94%
Barometer: 1007 hPa
Bewolking: Bewolking
Zicht: meer dan 10 km
Bewolking: Gedeeltelijk bewolkt 700 ft,
Grotendeels bewolkt 800 ft,
Bewolking 1000 ft
EHKD 100255Z AUTO 05015KT 010V090 9999 SCT007 BKN008 OVC010 14/13 Q1007 GRN
EHAM - Amsterdam/Schiph, Netherlands
Afstand tot: Z 44 km
Gewijzigd: 10-Jul-2020 04:25
Motregen, Regen, Grotendeels bewolkt  
Motregen, Regen, Grotendeels bewolkt  
   Wind: ZW 16.7 km/h
Wind: ZW 16.7 km/h
Temperatuur: 16°C
Dauwpunt: 16°C
Vochtigheid: 100%
Barometer: 1007 hPa
Bewolking: Grotendeels bewolkt
Zicht: 4 km
Bewolking: Licht bewolkt 300 ft,
Gedeeltelijk bewolkt 600 ft,
Grotendeels bewolkt 900 ft
EHAM 100225Z 23009KT 3900 DZRA FEW003 SCT006 BKN009 16/16 Q1007 REDZ RERA BECMG 36008KT
EHQE - Hoorn-A Sea, Netherlands
Afstand tot: WNW 50 km
Gewijzigd: 10-Jul-2020 04:55
Wat regen mogelijk, Grotendeels bewolkt  
Wat regen mogelijk, Grotendeels bewolkt  
   Wind: Noorden 40.7 km/h
Wind: Noorden 40.7 km/h
Temperatuur: 14°C
Dauwpunt: 13°C
Vochtigheid: 94%
Barometer: 1008 hPa
Bewolking: Grotendeels bewolkt
Zicht: meer dan 10 km
Bewolking: Licht bewolkt 500 ft,
Gedeeltelijk bewolkt 700 ft,
Grotendeels bewolkt 900 ft,
Licht bewolkt 1500 ft
EHQE 100255Z AUTO 01022KT 9999 -RA FEW005 SCT007 BKN009 FEW015CB 14/13 Q1008
EHVL - Vlieland Island, Netherlands
Afstand tot: N 58 km
Gewijzigd: 10-Jul-2020 04:55
Motregen, Grotendeels bewolkt  
Motregen, Grotendeels bewolkt  
   Wind: NO 35.2 km/h
Wind: NO 35.2 km/h
Temperatuur: 13°C
Dauwpunt: 12°C
Vochtigheid: 94%
Barometer: 1008 hPa
Bewolking: Grotendeels bewolkt
Zicht: meer dan 10 km
Bewolking: Gedeeltelijk bewolkt 1000 ft,
Grotendeels bewolkt 1200 ft,
Grotendeels bewolkt 1500 ft
EHVL 100255Z AUTO 04019KT 9999 DZ SCT010 BKN012 BKN015CB 13/12 Q1008 GRN
EHLW - Leeuwarden Rnlaf, Netherlands
Afstand tot: NO 85 km
Gewijzigd: 10-Jul-2020 04:55
Lichte buien, Regen, Bewolking  
Lichte buien, Regen, Bewolking  
   Wind: NO 20.4 km/h
Wind: NO 20.4 km/h
Temperatuur: 12°C
Dauwpunt: 12°C
Vochtigheid: 100%
Barometer: 1008 hPa
Bewolking: Bewolking
Zicht: meer dan 10 km
Bewolking: Licht bewolkt 500 ft,
Licht bewolkt 1500 ft,
Grotendeels bewolkt 5000 ft,
Bewolking 5700 ft
EHLW 100255Z AUTO 05011KT 010V090 9999 -SHRA FEW005 FEW015CB BKN050 OVC057 12/12 Q1008 REDZ BLU
EHRD - Rotterdam Airpor, Netherlands
Afstand tot: ZZW 88 km
Gewijzigd: 10-Jul-2020 04:55
Motregen, Grotendeels bewolkt  
Motregen, Grotendeels bewolkt  
   Wind: WZW 16.7 km/h
Wind: WZW 16.7 km/h
Temperatuur: 16°C
Dauwpunt: 16°C
Vochtigheid: 100%
Barometer: 1007 hPa
Bewolking: Grotendeels bewolkt
Zicht: 3 km
Bewolking: Licht bewolkt 400 ft,
Grotendeels bewolkt 500 ft,
Grotendeels bewolkt 700 ft
EHRD 100255Z AUTO 24009KT 3400 DZ FEW004 BKN005 BKN007 16/16 Q1007 NOSIG
EHKV - K14-Fa-1c Sea, Netherlands
Afstand tot: NW 100 km
Gewijzigd: 10-Jul-2020 04:55
Grotendeels bewolkt  
Grotendeels bewolkt  
   Wind: NNO 44.4 km/h
Wind: NNO 44.4 km/h
Temperatuur: 14°C
Dauwpunt: 11°C
Vochtigheid: 82%
Barometer: 1010 hPa
Bewolking: Grotendeels bewolkt
Zicht: meer dan 10 km
Bewolking: Licht bewolkt 1100 ft,
Gedeeltelijk bewolkt 1400 ft,
Grotendeels bewolkt 1700 ft
EHKV 100255Z AUTO 02024KT 9999 FEW011 SCT014 BKN017 14/11 Q1010
EHMG - L9-Ff-1 Sea, Netherlands
Afstand tot: N 101 km
Gewijzigd: 10-Jul-2020 04:55
Motregen, Grotendeels bewolkt  
Motregen, Grotendeels bewolkt  
   Wind: NO 40.7 km/h
Wind: NO 40.7 km/h
Temperatuur: 14°C
Dauwpunt: 11°C
Vochtigheid: 82%
Barometer: 1009 hPa
Bewolking: Grotendeels bewolkt
Zicht: meer dan 10 km
Bewolking: Licht bewolkt 1100 ft,
Gedeeltelijk bewolkt 1400 ft,
Licht bewolkt 1500 ft,
Grotendeels bewolkt 1900 ft
EHMG 100255Z AUTO 04022KT 9999 DZ FEW011 SCT014 FEW015CB BKN019 14/11 Q1009
EHDL - Deelen Rnlafb, Netherlands
Afstand tot: ZO 102 km
Gewijzigd: 10-Jul-2020 04:55
Nevel, Grotendeels bewolkt  
Nevel, Grotendeels bewolkt  
   Wind: ZW 16.7 km/h
Wind: ZW 16.7 km/h
Temperatuur: 16°C
Dauwpunt: 16°C
Vochtigheid: 100%
Barometer: 1007 hPa
Bewolking: Grotendeels bewolkt
Zicht: 3 km
Bewolking: Licht bewolkt 500 ft,
Grotendeels bewolkt 700 ft,
Grotendeels bewolkt 800 ft
EHDL 100255Z AUTO 22009KT 170V270 3200 BR FEW005 BKN007 BKN008 16/16 Q1007 YLO
EHPG - P11-B Sea, Netherlands
Afstand tot: WZW 106 km
Gewijzigd: 10-Jul-2020 04:55
Motregen, Regen, Grotendeels bewolkt  
Motregen, Regen, Grotendeels bewolkt  
   Wind: Noorden 18.5 km/h
Wind: Noorden 18.5 km/h
Temperatuur: 14°C
Dauwpunt: 13°C
Vochtigheid: 94%
Barometer: 1008 hPa
Bewolking: Grotendeels bewolkt
Zicht: 9 km
Bewolking: Licht bewolkt 300 ft,
Gedeeltelijk bewolkt 600 ft,
Grotendeels bewolkt 1000 ft
EHPG 100255Z AUTO 36010KT 290V080 9000 DZRA FEW003 SCT006 BKN010 14/13 Q1008
EHMA - Awg-1 Sea, Netherlands
Afstand tot: NO 116 km
Gewijzigd: 10-Jul-2020 04:55
Lichte buien, Regen, Grotendeels bewolkt  
Lichte buien, Regen, Grotendeels bewolkt  
   Wind: NO 31.5 km/h
Wind: NO 31.5 km/h
Temperatuur: 13°C
Dauwpunt: 12°C
Vochtigheid: 94%
Barometer: 1008 hPa
Bewolking: Grotendeels bewolkt
Zicht: 7 km
Bewolking: Gedeeltelijk bewolkt 400 ft,
Grotendeels bewolkt 600 ft,
Grotendeels bewolkt 900 ft,
Licht bewolkt 1500 ft
EHMA 100255Z AUTO 04017KT 7000 -SHRA SCT004 BKN006 BKN009 FEW015CB 13/12 Q1008 REDZ
EHSC - Goeree Le Sea, Netherlands
Afstand tot: ZW 116 km
Gewijzigd: 10-Jul-2020 04:55
  
  
   Wind: NNW 20.4 km/h
Wind: NNW 20.4 km/h
Temperatuur: 16°C
Dauwpunt: 16°C
Vochtigheid: 100%
Barometer: 1007 hPa
Zicht: meer dan 10 km
EHSC 100255Z AUTO 33011KT 320V020 9999 ///////// 16/16 Q1007 W18/H10
EHJR - K13-A Sea, Netherlands
Afstand tot: WNW 120 km
Gewijzigd: 10-Jul-2020 04:55
  
  
   Wind: NNO 38.9 km/h
Wind: NNO 38.9 km/h
Temperatuur: 14°C
Dauwpunt: 11°C
Vochtigheid: 82%
Barometer: 1010 hPa
EHJR 100255Z AUTO 03021KT //// // ///////// 14/11 Q1010 RE// W///H14
EHGG - Groningen/Eelde, Netherlands
Afstand tot: ONO 126 km
Gewijzigd: 10-Jul-2020 04:55
Heavy Drizzle, Grotendeels bewolkt  
Heavy Drizzle, Grotendeels bewolkt  
   Wind: NNO 18.5 km/h
Wind: NNO 18.5 km/h
Temperatuur: 12°C
Dauwpunt: 12°C
Vochtigheid: 100%
Barometer: 1006 hPa
Bewolking: Grotendeels bewolkt
Zicht: 5 km
Bewolking: Gedeeltelijk bewolkt 300 ft,
Grotendeels bewolkt 400 ft,
Grotendeels bewolkt 500 ft,
Licht bewolkt 1500 ft
EHGG 100255Z AUTO 03010KT 360V060 5000 +DZ SCT003 BKN004 BKN005 FEW015CB 12/12 Q1006
EHGR - Gilze-Rijen Rnla, Netherlands
Afstand tot: Z 128 km
Gewijzigd: 10-Jul-2020 04:55
Bewolking  
Bewolking  
   Wind: ZW 14.8 km/h
Wind: ZW 14.8 km/h
Temperatuur: 17°C
Dauwpunt: 15°C
Vochtigheid: 88%
Barometer: 1008 hPa
Bewolking: Bewolking
Zicht: meer dan 10 km
Bewolking: Bewolking 1000 ft
EHGR 100255Z AUTO 23008KT 190V270 9999 OVC010 17/15 Q1008 GRN
EHSA - Euro Platform, Netherlands
Afstand tot: ZW 130 km
Gewijzigd: 10-Jul-2020 04:55
  
  
   Wind: Noorden 38.9 km/h
Wind: Noorden 38.9 km/h
Temperatuur: 15°C
Dauwpunt: 13°C
Vochtigheid: 88%
Barometer: 1008 hPa
Zicht: meer dan 10 km
EHSA 100255Z AUTO 36021KT 9999 ///////// 15/13 Q1008 W15/H12
EHVK - Volkel Rnlafb, Netherlands
Afstand tot: ZZO 135 km
Gewijzigd: 10-Jul-2020 04:55
Bewolking  
Bewolking  
   Wind: WZW 20.4 km/h
Wind: WZW 20.4 km/h
Temperatuur: 17°C
Dauwpunt: 14°C
Vochtigheid: 83%
Barometer: 1008 hPa
Bewolking: Bewolking
Zicht: meer dan 10 km
Bewolking: Bewolking 1500 ft
EHVK 100255Z AUTO 24011KT 200V280 9999 OVC015 17/14 Q1008 WHT
EHWO - Woensdrecht Rnla, Netherlands
Afstand tot: ZZW 144 km
Gewijzigd: 10-Jul-2020 04:55
Nevel, Bewolking  
Nevel, Bewolking  
   Wind: ZW 16.7 km/h
Wind: ZW 16.7 km/h
Temperatuur: 16°C
Dauwpunt: 15°C
Vochtigheid: 94%
Barometer: 1008 hPa
Bewolking: Bewolking
Zicht: 3 km
Bewolking: Licht bewolkt 500 ft,
Grotendeels bewolkt 600 ft,
Bewolking 800 ft
EHWO 100255Z AUTO 22009KT 200V260 2900 BR FEW005 BKN006 OVC008 16/15 Q1008 YLO
EHEH - Eindhoven Rnlafb, Netherlands
Afstand tot: ZZO 146 km
Gewijzigd: 10-Jul-2020 04:55
Bewolking  
Bewolking  
   Wind: ZW 18.5 km/h
Wind: ZW 18.5 km/h
Temperatuur: 17°C
Dauwpunt: 14°C
Vochtigheid: 83%
Barometer: 1008 hPa
Bewolking: Bewolking
Zicht: meer dan 10 km
Bewolking: Bewolking 1600 ft
EHEH 100255Z AUTO 23010KT 210V280 9999 OVC016 17/14 Q1008 WHT
EDLV - Niederrhein, Germany
Afstand tot: ZO 154 km
Gewijzigd: 10-Jul-2020 04:50
Grotendeels bewolkt  
Grotendeels bewolkt  
   Wind: ZW 14.8 km/h
Wind: ZW 14.8 km/h
Temperatuur: 18°C
Dauwpunt: 15°C
Vochtigheid: 83%
Barometer: 1008 hPa
Bewolking: Grotendeels bewolkt
Zicht: meer dan 10 km
Bewolking: Grotendeels bewolkt 2000 ft
EDLV 100250Z 22008KT 9999 BKN020 18/15 Q1008
 

Script ontwikkeld door  Saratoga-weather.org Aangepast voor de template door  Weerstation Leuven

U vindt ons ook hier:

Vereniging voor Weerkunde en Klimatologie

Het Weer Aktueel

WOW Nederland KNMI

UK Metoffice

European Weather Network

WeatherCloud

Weather Underground

Benelux Weer Netwerk

AWEKAS

WeatherlinkIP

Citizen Weather Observer Program (CWOP)

HAMweather, WeatherForYou, PWS Weather

        

Apparatuur in gebruik:

Weerstation
Davis - Vantage Veu

Weerprogramma
Meteobridge

Weercomputer
Carambola2 - MeteroBridge Pro (black)

Webleverancier
1Eurohosting

Hardwareleverancier 1
Uurwerk- & Meteospecialist Vlasma

Hardwareleverancier 2
Weerhuisje

Davis - Vantage Veu

Meteobridge

Carambola2 - MeteroBridge Pro (black)

1Eurohosting

Uurwerk- & Meteospecialist Vlasma

Weerhuisje


Alles over het weer rondom het weerstation van Meteo Oudkarspel, vind je hier. Dus alles onder 1 dak.

Everything about the weather around the Meteo Oudkarspel weather station can be found here. So everything under one roof..

Dus kom regelmatig terug, So come back regularly.


# #---------------------- version history # 3.20 2015-10-12 release 2.8b version